Time;durP1;ratioP1;P1;durP2;ratioP2;P2;SDS_P1;SDS_P2;PMS_P1;PMS_P2;Temp;Humidity;BMP_temperature;BMP_pressure;BME280_temperature;BME280_humidity;BME280_pressure;Samples;Min_cycle;Max_cycle;Signal;HPM_P1;HPM_P2
2023/04/22 00:02:01;;;;;;;34.40;20.70;;;;;;;6.18;54.20;100184.96;130756;1268;108145;-76
2023/04/22 00:05:08;;;;;;;41.00;23.00;;;;;;;6.05;54.51;100180.52;130658;1255;108020;-75
2023/04/22 00:08:13;;;;;;;36.10;22.10;;;;;;;6.03;54.60;100177.48;130657;1257;107533;-76
2023/04/22 00:11:19;;;;;;;45.40;25.20;;;;;;;5.99;54.86;100180.67;130656;1259;107527;-76
2023/04/22 00:14:24;;;;;;;45.50;26.60;;;;;;;5.95;54.80;100180.97;130606;1257;107357;-76
2023/04/22 00:17:30;;;;;;;41.50;24.50;;;;;;;5.93;54.94;100174.62;130572;1266;106542;-76
2023/04/22 00:20:36;;;;;;;40.20;23.30;;;;;;;5.91;55.02;100168.58;130610;1257;107470;-76
2023/04/22 00:23:44;;;;;;;33.00;20.70;;;;;;;5.92;55.28;100167.25;130784;1258;107479;-75
2023/04/22 00:26:49;;;;;;;36.10;20.70;;;;;;;5.90;55.16;100163.89;130813;1254;107560;-76
2023/04/22 00:29:55;;;;;;;36.10;21.10;;;;;;;5.87;55.15;100164.66;130718;1254;107396;-76
2023/04/22 00:33:01;;;;;;;39.10;22.60;;;;;;;5.83;55.22;100170.59;130633;1258;107549;-76
2023/04/22 00:36:08;;;;;;;45.20;24.20;;;;;;;5.78;55.31;100167.67;130648;1257;107389;-76
2023/04/22 00:39:14;;;;;;;42.70;23.00;;;;;;;5.73;55.38;100165.78;130663;1259;107571;-75
2023/04/22 00:42:19;;;;;;;35.90;20.50;;;;;;;5.69;55.47;100165.19;130574;1257;107474;-76
2023/04/22 00:45:27;;;;;;;35.50;20.90;;;;;;;5.66;55.61;100164.41;130567;1257;107570;-77
2023/04/22 00:48:33;;;;;;;33.20;20.60;;;;;;;5.64;55.53;100162.81;130732;1255;106611;-74
2023/04/22 00:51:39;;;;;;;40.50;22.90;;;;;;;5.62;55.50;100166.14;130782;1260;105730;-75
2023/04/22 00:54:45;;;;;;;36.60;22.40;;;;;;;5.54;55.61;100165.04;130716;1268;107290;-76
2023/04/22 00:57:54;;;;;;;36.60;20.80;;;;;;;5.49;55.61;100165.21;130647;1253;107250;-76
2023/04/22 01:01:00;;;;;;;45.10;24.40;;;;;;;5.46;55.86;100163.19;130679;1266;107538;-76
2023/04/22 01:04:06;;;;;;;39.30;21.90;;;;;;;5.43;55.82;100164.28;130809;1254;107570;-75
2023/04/22 01:07:12;;;;;;;34.10;21.10;;;;;;;5.43;56.00;100163.80;130716;1253;107463;-75
2023/04/22 01:10:18;;;;;;;32.00;20.20;;;;;;;5.40;55.91;100165.60;130641;1257;107531;-77
2023/04/22 01:13:24;;;;;;;32.60;19.60;;;;;;;5.37;56.00;100160.75;130681;1257;107514;-76
2023/04/22 01:16:32;;;;;;;31.90;19.40;;;;;;;5.34;56.17;100163.77;130654;1257;107636;-76
2023/04/22 01:19:38;;;;;;;29.60;19.60;;;;;;;5.33;56.22;100162.30;130719;1259;107543;-76
2023/04/22 01:22:46;;;;;;;30.30;18.70;;;;;;;5.30;56.24;100160.92;130654;1258;107527;-77
2023/04/22 01:25:52;;;;;;;33.00;19.20;;;;;;;5.27;56.29;100156.74;130728;1259;107257;-76
2023/04/22 01:28:58;;;;;;;31.50;19.30;;;;;;;5.21;56.25;100163.77;130713;1267;107564;-76
2023/04/22 01:32:04;;;;;;;30.40;18.30;;;;;;;5.17;56.56;100162.55;130672;1257;107580;-76
2023/04/22 01:35:11;;;;;;;32.00;19.70;;;;;;;5.10;56.38;100164.25;130553;1258;107579;-76
2023/04/22 01:38:17;;;;;;;31.00;19.20;;;;;;;5.07;56.57;100162.87;130711;1254;107355;-76
2023/04/22 01:41:23;;;;;;;31.70;18.70;;;;;;;5.05;56.58;100169.25;130646;1260;107412;-76
2023/04/22 01:44:29;;;;;;;33.90;20.50;;;;;;;5.01;56.83;100166.19;130708;1257;107530;-75
2023/04/22 01:47:35;;;;;;;31.00;20.60;;;;;;;5.00;56.74;100166.25;130639;1259;106753;-75
2023/04/22 01:50:40;;;;;;;35.30;21.10;;;;;;;4.99;56.85;100168.30;130721;1257;107241;-76
2023/04/22 01:53:46;;;;;;;34.40;20.00;;;;;;;4.97;56.83;100165.45;130778;1265;107290;-77
2023/04/22 01:56:57;;;;;;;34.30;19.90;;;;;;;4.92;56.79;100161.77;130608;1257;107543;-76
2023/04/22 02:00:03;;;;;;;34.70;20.10;;;;;;;4.87;57.02;100162.15;130683;1258;107572;-76
2023/04/22 02:03:17;;;;;;;33.30;19.70;;;;;;;4.87;57.12;100158.86;130627;1254;107406;-76
2023/04/22 02:06:23;;;;;;;30.90;18.10;;;;;;;4.84;57.02;100160.08;130709;1257;107592;-77
2023/04/22 02:09:28;;;;;;;32.40;20.60;;;;;;;4.82;57.10;100163.45;130612;1258;107681;-77
2023/04/22 02:12:34;;;;;;;32.20;20.00;;;;;;;4.82;57.22;100160.46;130630;1254;107544;-76
2023/04/22 02:15:40;;;;;;;33.90;19.80;;;;;;;4.79;57.05;100161.20;130675;1255;107476;-75
2023/04/22 02:18:45;;;;;;;32.00;19.80;;;;;;;4.75;57.21;100157.30;130702;1268;108157;-76
2023/04/22 02:21:51;;;;;;;29.30;19.10;;;;;;;4.72;57.32;100154.11;130747;1254;107872;-77
2023/04/22 02:24:56;;;;;;;26.60;18.30;;;;;;;4.70;57.35;100153.09;130697;1257;107518;-76
2023/04/22 02:28:02;;;;;;;30.30;18.60;;;;;;;4.65;57.32;100151.89;130794;1255;107586;-76
2023/04/22 02:31:08;;;;;;;28.30;17.70;;;;;;;4.60;57.45;100155.79;130723;1254;107883;-76
2023/04/22 02:34:13;;;;;;;27.20;17.50;;;;;;;4.58;57.49;100150.45;130850;1254;107250;-76
2023/04/22 02:37:19;;;;;;;28.00;18.20;;;;;;;4.57;57.74;100157.77;130922;1257;105779;-76
2023/04/22 02:40:25;;;;;;;28.40;17.70;;;;;;;4.56;57.58;100152.58;130902;1255;107309;-75
2023/04/22 02:43:31;;;;;;;26.40;17.60;;;;;;;4.53;57.59;100153.45;130770;1254;107275;-76
2023/04/22 02:46:36;;;;;;;26.40;17.60;;;;;;;4.50;57.65;100152.98;130645;1257;107558;-76
2023/04/22 02:49:41;;;;;;;28.50;18.00;;;;;;;4.47;57.66;100147.29;130650;1257;109173;-75
2023/04/22 02:52:48;;;;;;;28.60;17.20;;;;;;;4.44;57.64;100147.85;130746;1260;107259;-77
2023/04/22 02:55:54;;;;;;;29.60;16.80;;;;;;;4.39;57.80;100145.77;130681;1253;107480;-76
2023/04/22 02:59:00;;;;;;;30.90;18.00;;;;;;;4.36;57.86;100145.83;130573;1253;107408;-76
2023/04/22 03:02:05;;;;;;;33.60;20.20;;;;;;;4.35;57.91;100149.92;130630;1258;107575;-76
2023/04/22 03:05:49;;;;;;;33.80;20.00;;;;;;;4.31;57.99;100147.70;130635;1257;107581;-76
2023/04/22 03:08:55;;;;;;;34.10;20.00;;;;;;;4.31;58.11;100149.70;130658;1257;107307;-76
2023/04/22 03:12:01;;;;;;;32.80;19.10;;;;;;;4.29;58.11;100149.80;130646;1257;107463;-76
2023/04/22 03:15:09;;;;;;;29.10;18.50;;;;;;;4.28;58.10;100149.73;130702;1254;107353;-76
2023/04/22 03:18:14;;;;;;;28.20;17.50;;;;;;;4.24;58.18;100145.45;130977;1255;107519;-77
2023/04/22 03:21:21;;;;;;;26.70;17.90;;;;;;;4.22;58.31;100146.48;130806;1253;107372;-75
2023/04/22 03:24:26;;;;;;;26.50;17.30;;;;;;;4.20;58.48;100149.60;130848;1259;107444;-76
2023/04/22 03:27:32;;;;;;;26.40;17.50;;;;;;;4.21;58.38;100156.96;130673;1257;106480;-75
2023/04/22 03:30:39;;;;;;;24.90;16.70;;;;;;;4.19;58.43;100158.28;130718;1254;107471;-75
2023/04/22 03:33:44;;;;;;;30.20;18.60;;;;;;;4.18;58.51;100160.18;130643;1254;107528;-76
2023/04/22 03:36:57;;;;;;;26.60;16.90;;;;;;;4.17;58.66;100156.39;130611;1257;107516;-76
2023/04/22 03:40:06;;;;;;;25.30;16.90;;;;;;;4.18;58.66;100154.19;130677;1258;107539;-76
2023/04/22 03:43:12;;;;;;;25.50;16.80;;;;;;;4.17;58.55;100156.21;130682;1260;107246;-76
2023/04/22 03:46:18;;;;;;;26.20;17.70;;;;;;;4.19;58.73;100164.14;130629;1258;107558;-76
2023/04/22 03:49:32;;;;;;;28.10;18.10;;;;;;;4.21;58.86;100167.20;130725;1257;107498;-75
2023/04/22 03:52:38;;;;;;;32.50;20.10;;;;;;;4.23;58.82;100165.77;130697;1253;107275;-76
2023/04/22 03:55:44;;;;;;;32.90;20.00;;;;;;;4.24;58.85;100168.48;130557;1258;107495;-77
2023/04/22 03:58:50;;;;;;;27.10;17.50;;;;;;;4.26;58.82;100171.05;130658;1268;107670;-76
2023/04/22 04:01:56;;;;;;;29.90;18.60;;;;;;;4.27;59.13;100166.71;130688;1269;105433;-77
2023/04/22 04:05:05;;;;;;;27.70;17.60;;;;;;;4.30;59.13;100168.92;130772;1254;107765;-76
2023/04/22 04:08:11;;;;;;;29.70;19.00;;;;;;;4.37;59.33;100168.98;130873;1257;107687;-75
2023/04/22 04:11:16;;;;;;;27.50;18.20;;;;;;;4.45;59.29;100172.55;130669;1257;106517;-76
2023/04/22 04:14:23;;;;;;;27.40;17.50;;;;;;;4.54;59.36;100177.02;130715;1257;107458;-76
2023/04/22 04:17:30;;;;;;;28.40;17.80;;;;;;;4.64;59.42;100170.42;130794;1254;107482;-76
2023/04/22 04:20:38;;;;;;;28.90;17.70;;;;;;;4.76;59.60;100168.83;130792;1259;106403;-75
2023/04/22 04:23:43;;;;;;;23.50;15.80;;;;;;;4.92;59.56;100169.00;130722;1257;107656;-76
2023/04/22 04:26:51;;;;;;;25.30;15.50;;;;;;;5.06;59.54;100168.76;130767;1257;107385;-74
2023/04/22 04:30:02;;;;;;;25.70;15.20;;;;;;;5.31;59.75;100168.04;130707;1268;106589;-77
2023/04/22 04:33:17;;;;;;;25.20;16.60;;;;;;;5.60;59.64;100167.02;130684;1256;107473;-78
2023/04/22 04:36:24;;;;;;;24.30;16.90;;;;;;;5.82;59.61;100167.21;130589;1257;107385;-78
2023/04/22 04:39:31;;;;;;;24.30;16.60;;;;;;;6.07;60.02;100164.83;130673;1258;107506;-78
2023/04/22 04:42:38;;;;;;;24.90;17.00;;;;;;;6.36;59.88;100169.35;130767;1256;107377;-77
2023/04/22 04:45:46;;;;;;;26.00;16.80;;;;;;;6.61;59.77;100175.69;130711;1257;107459;-76
2023/04/22 04:48:52;;;;;;;27.70;17.50;;;;;;;6.88;59.87;100172.86;130736;1253;107430;-77
2023/04/22 04:52:00;;;;;;;24.00;17.00;;;;;;;7.13;59.58;100170.03;130692;1257;107525;-74
2023/04/22 04:55:07;;;;;;;24.70;17.40;;;;;;;7.35;59.76;100168.98;130907;1253;107493;-76
2023/04/22 04:58:13;;;;;;;26.60;17.60;;;;;;;7.59;60.08;100166.41;130695;1256;107489;-78
2023/04/22 05:01:19;;;;;;;22.60;17.00;;;;;;;7.80;59.99;100162.58;130672;1258;107465;-77
2023/04/22 05:04:25;;;;;;;31.50;20.40;;;;;;;8.00;59.94;100159.04;130712;1257;107564;-78
2023/04/22 05:07:31;;;;;;;30.00;20.80;;;;;;;8.20;60.11;100159.30;130666;1254;106228;-77
2023/04/22 05:10:37;;;;;;;29.50;20.10;;;;;;;8.41;60.30;100155.79;130800;1254;108086;-73
2023/04/22 05:13:43;;;;;;;32.70;21.10;;;;;;;8.61;60.33;100155.40;130617;1253;107416;-75
2023/04/22 05:16:50;;;;;;;34.30;21.70;;;;;;;8.81;60.55;100154.77;130559;1257;107381;-74
2023/04/22 05:19:57;;;;;;;38.10;24.10;;;;;;;9.00;60.63;100158.33;130787;1254;107390;-74
2023/04/22 05:23:02;;;;;;;42.80;27.30;;;;;;;9.18;60.81;100152.33;130677;1258;107533;-74
2023/04/22 05:26:08;;;;;;;46.20;28.20;;;;;;;9.38;60.96;100154.86;130910;1257;107409;-74
2023/04/22 05:29:16;;;;;;;40.40;23.60;;;;;;;9.57;60.76;100151.45;130764;1254;106285;-74
2023/04/22 05:32:22;;;;;;;27.90;18.40;;;;;;;9.73;60.85;100150.23;130838;1260;105687;-74
2023/04/22 05:35:28;;;;;;;23.70;16.50;;;;;;;9.82;60.68;100154.33;130703;1257;107450;-74
2023/04/22 05:38:33;;;;;;;22.60;16.20;;;;;;;9.88;60.85;100154.29;130671;1253;107523;-74
2023/04/22 05:41:40;;;;;;;22.90;16.70;;;;;;;9.93;60.43;100152.90;130664;1258;107460;-74
2023/04/22 05:44:47;;;;;;;22.10;16.20;;;;;;;10.00;60.39;100151.90;130877;1254;107504;-74
2023/04/22 05:47:53;;;;;;;25.60;17.50;;;;;;;10.08;60.18;100148.73;130672;1257;107375;-74
2023/04/22 05:50:59;;;;;;;26.10;18.00;;;;;;;10.14;60.76;100149.44;130855;1257;107339;-73
2023/04/22 05:54:07;;;;;;;25.30;17.30;;;;;;;10.12;60.58;100148.75;130808;1258;107207;-73
2023/04/22 05:57:13;;;;;;;25.60;16.00;;;;;;;10.19;60.48;100151.34;130742;1258;107543;-73
2023/04/22 06:00:19;;;;;;;23.40;16.30;;;;;;;10.29;60.27;100151.31;130844;1254;107163;-73
2023/04/22 06:03:29;;;;;;;25.80;16.30;;;;;;;10.38;60.09;100150.04;130747;1268;107400;-73
2023/04/22 06:06:35;;;;;;;25.40;16.30;;;;;;;10.47;59.68;100147.89;130805;1257;107358;-73
2023/04/22 06:09:40;;;;;;;26.50;17.50;;;;;;;10.54;59.98;100149.53;130774;1254;107241;-73
2023/04/22 06:12:46;;;;;;;27.00;18.60;;;;;;;10.62;59.68;100153.33;130715;1257;107447;-72
2023/04/22 06:15:51;;;;;;;27.90;17.90;;;;;;;10.67;60.08;100151.66;130611;1257;107555;-75
2023/04/22 06:18:57;;;;;;;26.70;18.70;;;;;;;10.70;60.42;100151.34;130651;1257;107496;-73
2023/04/22 06:22:03;;;;;;;25.70;19.20;;;;;;;10.80;60.44;100150.42;130713;1258;107263;-73
2023/04/22 06:25:10;;;;;;;29.70;20.10;;;;;;;10.89;60.38;100150.63;130751;1253;107240;-72
2023/04/22 06:28:16;;;;;;;28.10;19.60;;;;;;;10.96;60.29;100148.83;130865;1257;107382;-74
2023/04/22 06:31:32;;;;;;;27.40;18.80;;;;;;;11.04;60.28;100148.14;130864;1267;107352;-74
2023/04/22 06:34:44;;;;;;;31.80;19.60;;;;;;;11.13;60.07;100144.24;130699;1253;106719;-76
2023/04/22 06:37:50;;;;;;;27.60;17.90;;;;;;;11.22;59.81;100147.71;130656;1257;107434;-75
2023/04/22 06:40:55;;;;;;;25.40;18.60;;;;;;;11.32;59.64;100146.98;130591;1254;107363;-73
2023/04/22 06:44:04;;;;;;;22.70;16.20;;;;;;;11.45;59.88;100147.45;130567;1257;107472;-73
2023/04/22 06:47:10;;;;;;;21.10;14.00;;;;;;;11.55;59.44;100144.63;130636;1257;107520;-73
2023/04/22 06:50:21;;;;;;;;;;;;;;;11.65;59.40;100146.46;130654;1257;107396;-73
2023/04/22 06:53:31;;;;;;;18.30;11.00;;;;;;;11.74;59.32;100141.87;130667;1257;106499;-73
2023/04/22 06:56:37;;;;;;;15.70;10.30;;;;;;;11.83;58.97;100144.13;130734;1257;107525;-73
2023/04/22 06:59:42;;;;;;;14.40;9.70;;;;;;;11.94;58.47;100141.41;130995;1258;107788;-72
2023/04/22 07:02:48;;;;;;;16.80;9.90;;;;;;;12.03;57.93;100145.96;130620;1257;107462;-73
2023/04/22 07:05:54;;;;;;;16.00;9.70;;;;;;;12.13;58.20;100147.55;130584;1257;107478;-73
2023/04/22 07:08:59;;;;;;;17.00;10.40;;;;;;;12.23;58.19;100144.77;130697;1253;107455;-75
2023/04/22 07:12:05;;;;;;;14.00;9.60;;;;;;;12.34;58.02;100145.81;130679;1258;107555;-72
2023/04/22 07:15:12;;;;;;;14.80;9.20;;;;;;;12.45;57.83;100149.27;130793;1255;107600;-73
2023/04/22 07:18:17;;;;;;;13.80;9.90;;;;;;;12.54;57.75;100148.98;130708;1253;107477;-72
2023/04/22 07:21:23;;;;;;;14.10;10.40;;;;;;;12.64;57.00;100149.39;130668;1253;107531;-73
2023/04/22 07:24:28;;;;;;;17.70;10.80;;;;;;;12.72;57.12;100150.73;130795;1254;107459;-72
2023/04/22 07:27:34;;;;;;;14.30;10.30;;;;;;;12.81;57.08;100153.13;130825;1257;107260;-73
2023/04/22 07:30:39;;;;;;;14.90;10.60;;;;;;;12.90;57.13;100148.10;130933;1253;107613;-73
2023/04/22 07:33:45;;;;;;;14.70;10.30;;;;;;;12.98;56.94;100143.42;130842;1257;106772;-73
2023/04/22 07:36:52;;;;;;;14.20;9.30;;;;;;;13.07;56.63;100143.51;130851;1256;107552;-74
2023/04/22 07:39:57;;;;;;;14.90;9.70;;;;;;;13.15;56.73;100142.58;130824;1257;107573;-75
2023/04/22 07:43:04;;;;;;;13.60;9.80;;;;;;;13.26;56.31;100139.27;130612;1257;107973;-72
2023/04/22 07:46:10;;;;;;;13.70;9.70;;;;;;;13.37;56.23;100141.91;130677;1257;105635;-72
2023/04/22 07:49:16;;;;;;;15.20;9.40;;;;;;;13.48;56.25;100141.40;130664;1257;107542;-72
2023/04/22 07:52:21;;;;;;;14.70;9.40;;;;;;;13.58;56.10;100135.83;130695;1253;107217;-73
2023/04/22 07:55:27;;;;;;;13.90;9.00;;;;;;;13.67;56.20;100141.16;130676;1258;107522;-73
2023/04/22 07:58:32;;;;;;;12.60;7.70;;;;;;;13.76;55.53;100137.54;130691;1257;107577;-73
2023/04/22 08:01:38;;;;;;;13.30;8.10;;;;;;;13.85;54.87;100141.70;130772;1256;107671;-72
2023/04/22 08:04:43;;;;;;;12.90;8.30;;;;;;;13.97;55.14;100138.30;130760;1258;107534;-74
2023/04/22 08:07:49;;;;;;;10.70;7.70;;;;;;;14.08;55.01;100136.83;130650;1257;107548;-72
2023/04/22 08:10:54;;;;;;;11.70;8.10;;;;;;;14.20;55.02;100140.90;130659;1257;107425;-73
2023/04/22 08:14:00;;;;;;;13.00;7.90;;;;;;;14.30;54.62;100140.04;130654;1258;106590;-70
2023/04/22 08:17:05;;;;;;;14.10;9.30;;;;;;;14.42;54.61;100141.33;130725;1259;107557;-73
2023/04/22 08:20:14;;;;;;;12.00;8.20;;;;;;;14.52;53.17;100142.73;130787;1254;107580;-72
2023/04/22 08:23:21;;;;;;;11.00;7.80;;;;;;;14.61;53.62;100139.31;130742;1258;105801;-72
2023/04/22 08:26:26;;;;;;;11.10;7.70;;;;;;;14.67;53.61;100138.94;130827;1254;107484;-72
2023/04/22 08:29:32;;;;;;;11.00;7.10;;;;;;;14.74;53.62;100135.62;130816;1255;107547;-74
2023/04/22 08:32:38;;;;;;;10.20;5.60;;;;;;;14.83;51.14;100138.25;130584;1254;107263;-73
2023/04/22 08:35:44;;;;;;;8.30;5.20;;;;;;;14.95;51.72;100133.48;130703;1254;108016;-73
2023/04/22 08:38:49;;;;;;;7.80;4.90;;;;;;;15.04;50.55;100131.20;130725;1254;107322;-73
2023/04/22 08:41:57;;;;;;;10.00;5.80;;;;;;;15.16;48.92;100130.40;130610;1257;107417;-72
2023/04/22 08:45:04;;;;;;;6.00;4.10;;;;;;;15.26;49.28;100131.28;130789;1255;107520;-74
2023/04/22 08:48:11;;;;;;;6.10;3.80;;;;;;;15.33;49.19;100129.71;130803;1258;107536;-73
2023/04/22 08:51:18;;;;;;;5.60;4.20;;;;;;;15.38;47.75;100133.13;130791;1257;107537;-74
2023/04/22 08:54:25;;;;;;;5.60;4.20;;;;;;;15.45;47.61;100135.61;130793;1256;107628;-72
2023/04/22 08:57:33;;;;;;;6.40;4.80;;;;;;;15.53;46.55;100133.08;130660;1257;107540;-74
2023/04/22 09:00:39;;;;;;;5.80;5.10;;;;;;;15.59;47.59;100126.95;130590;1257;107515;-75
2023/04/22 09:03:46;;;;;;;8.90;5.60;;;;;;;15.64;48.29;100128.69;130800;1257;107601;-76
2023/04/22 09:06:51;;;;;;;6.80;5.10;;;;;;;15.67;47.04;100126.38;130749;1256;108170;-74
2023/04/22 09:09:58;;;;;;;7.40;5.90;;;;;;;15.71;47.55;100125.13;130840;1257;107556;-74
2023/04/22 09:13:05;;;;;;;10.60;6.10;;;;;;;15.79;45.85;100120.52;130915;1257;107471;-72
2023/04/22 09:16:11;;;;;;;7.00;4.80;;;;;;;15.86;46.81;100120.56;130841;1257;107460;-73
2023/04/22 09:19:16;;;;;;;6.90;4.80;;;;;;;15.92;47.14;100115.76;130853;1255;106709;-73
2023/04/22 09:22:22;;;;;;;7.10;4.70;;;;;;;15.97;46.83;100114.38;130804;1254;107578;-73
2023/04/22 09:25:29;;;;;;;9.60;5.20;;;;;;;16.04;46.13;100117.27;132728;1257;107458;-73
2023/04/22 09:28:38;;;;;;;6.40;5.00;;;;;;;16.09;47.20;100114.58;130616;1258;107548;-73
2023/04/22 09:31:47;;;;;;;6.50;5.10;;;;;;;16.13;46.29;100111.10;130810;1253;107530;-74
2023/04/22 09:34:54;;;;;;;7.30;5.50;;;;;;;16.20;45.65;100113.73;130724;1253;107424;-73
2023/04/22 09:38:01;;;;;;;5.90;5.20;;;;;;;16.22;46.92;100105.63;130634;1257;107511;-73
2023/04/22 09:41:12;;;;;;;6.40;5.40;;;;;;;16.23;45.75;100102.69;130729;1253;107173;-73
2023/04/22 09:44:18;;;;;;;7.70;5.00;;;;;;;16.27;44.27;100100.37;130631;1258;107276;-73
2023/04/22 09:47:24;;;;;;;5.70;4.80;;;;;;;16.34;45.48;100100.02;130695;1259;107500;-73
2023/04/22 09:50:30;;;;;;;5.80;4.70;;;;;;;16.37;46.42;100091.01;130690;1253;105787;-73
2023/04/22 09:53:38;;;;;;;7.90;5.10;;;;;;;16.45;46.22;100084.73;130746;1253;107520;-73
2023/04/22 09:56:48;;;;;;;7.70;4.50;;;;;;;16.52;45.59;100082.99;130597;1253;193726;-73
2023/04/22 09:59:54;;;;;;;7.10;4.70;;;;;;;16.61;44.71;100082.96;130696;1260;107541;-73
2023/04/22 10:03:01;;;;;;;6.30;4.00;;;;;;;16.63;45.19;100081.92;130736;1259;107549;-73
2023/04/22 10:06:07;;;;;;;7.00;4.90;;;;;;;16.63;44.44;100080.84;130563;1257;107589;-73
2023/04/22 10:09:12;;;;;;;7.10;4.90;;;;;;;16.64;44.11;100081.05;130774;1258;107481;-73
2023/04/22 10:12:18;;;;;;;6.20;4.40;;;;;;;16.68;42.90;100083.65;130810;1257;107538;-72
2023/04/22 10:15:25;;;;;;;6.80;4.60;;;;;;;16.75;42.32;100077.21;131200;1258;107761;-73
2023/04/22 10:18:35;;;;;;;6.20;4.50;;;;;;;16.80;41.80;100078.38;130748;1257;107589;-72
2023/04/22 10:21:43;;;;;;;7.50;4.30;;;;;;;16.79;39.45;100076.48;130665;1254;107970;-72
2023/04/22 10:24:54;;;;;;;8.70;5.40;;;;;;;16.76;38.74;100076.48;131014;1255;107647;-73
2023/04/22 10:28:06;;;;;;;6.30;4.80;;;;;;;16.79;41.74;100072.69;130749;1258;105969;-73
2023/04/22 10:31:22;;;;;;;5.60;4.20;;;;;;;16.85;42.25;100072.84;130676;1256;106606;-72
2023/04/22 10:34:31;;;;;;;6.40;4.00;;;;;;;16.87;42.72;100065.27;130755;1257;107487;-72
2023/04/22 10:37:38;;;;;;;4.60;3.70;;;;;;;16.94;43.08;100056.67;130710;1257;105802;-77
2023/04/22 10:41:00;;;;;;;7.30;4.30;;;;;;;17.00;42.54;100063.29;130768;1259;107550;-76
2023/04/22 10:44:08;;;;;;;6.00;4.10;;;;;;;16.99;40.91;100061.39;130599;1255;107427;-75
2023/04/22 10:47:26;;;;;;;10.40;4.40;;;;;;;17.05;40.56;100058.45;130725;1257;107525;-75
2023/04/22 10:50:33;;;;;;;4.00;3.60;;;;;;;17.09;40.53;100057.16;130688;1260;106287;-75
2023/04/22 10:53:41;;;;;;;4.60;3.60;;;;;;;17.12;41.03;100053.48;130593;1258;106602;-75
2023/04/22 10:57:04;;;;;;;6.30;3.60;;;;;;;17.13;41.83;100050.29;130745;1268;107480;-75
2023/04/22 11:00:40;;;;;;;5.00;3.30;;;;;;;17.17;41.80;100041.38;130888;1258;107249;-75
2023/04/22 11:03:45;;;;;;;7.20;3.50;;;;;;;17.20;41.48;100046.99;130924;1268;106714;-75
2023/04/22 11:07:15;;;;;;;4.30;3.30;;;;;;;17.24;40.36;100046.98;130738;1258;107543;-75
2023/04/22 11:10:39;;;;;;;4.90;3.50;;;;;;;17.29;40.89;100041.52;130740;1257;107470;-75
2023/04/22 11:13:49;;;;;;;6.10;3.50;;;;;;;17.31;40.40;100039.83;130750;1257;107852;-75
2023/04/22 11:16:55;;;;;;;5.20;4.00;;;;;;;17.33;39.34;100037.88;130733;1254;107264;-75
2023/04/22 11:20:01;;;;;;;6.90;3.50;;;;;;;17.36;39.98;100037.76;130721;1261;107275;-75
2023/04/22 11:23:07;;;;;;;4.90;3.40;;;;;;;17.32;40.36;100033.73;130835;1257;107432;-75
2023/04/22 11:26:12;;;;;;;4.50;3.00;;;;;;;17.25;40.58;100033.88;130929;1259;107515;-75
2023/04/22 11:29:18;;;;;;;4.00;3.30;;;;;;;17.26;40.43;100028.36;130741;1257;107452;-75
2023/04/22 11:32:24;;;;;;;4.30;3.00;;;;;;;17.29;40.18;100025.33;130761;1258;107481;-75
2023/04/22 11:35:32;;;;;;;3.90;3.00;;;;;;;17.32;40.41;100022.77;130745;1254;107578;-74
2023/04/22 11:38:37;;;;;;;4.00;2.80;;;;;;;17.34;40.65;100013.69;130848;1254;107443;-75
2023/04/22 11:41:43;;;;;;;4.60;3.30;;;;;;;17.39;39.99;100019.30;130900;1259;107566;-75
2023/04/22 11:44:50;;;;;;;5.30;3.20;;;;;;;17.46;39.15;100016.91;130889;1257;105535;-75
2023/04/22 11:47:56;;;;;;;4.40;3.30;;;;;;;17.54;38.54;100019.50;130731;1258;107526;-75
2023/04/22 11:51:12;;;;;;;3.40;2.90;;;;;;;17.54;38.12;100014.57;130762;1253;107541;-75
2023/04/22 11:54:17;;;;;;;3.50;2.70;;;;;;;17.57;38.57;100014.50;130845;1253;107493;-75
2023/04/22 11:57:24;;;;;;;4.50;3.10;;;;;;;17.62;38.81;100015.70;130823;1253;107707;-75
2023/04/22 12:00:36;;;;;;;5.10;2.90;;;;;;;17.70;38.29;100012.56;130760;1254;107386;-75
2023/04/22 12:03:41;;;;;;;3.70;3.20;;;;;;;17.77;37.87;100014.98;130779;1259;107538;-75
2023/04/22 12:06:47;;;;;;;8.00;2.90;;;;;;;17.82;39.02;100007.59;130718;1258;107236;-75
2023/04/22 12:09:56;;;;;;;6.10;3.00;;;;;;;17.82;37.17;100010.79;130740;1254;107242;-75
2023/04/22 12:13:02;;;;;;;4.30;2.90;;;;;;;17.82;38.57;100010.45;130621;1254;107263;-75
2023/04/22 12:16:12;;;;;;;4.30;2.50;;;;;;;17.84;38.89;100005.16;130689;1259;107516;-75
2023/04/22 12:19:24;;;;;;;6.20;3.20;;;;;;;17.85;36.45;100007.29;130684;1258;107405;-75
2023/04/22 12:22:32;;;;;;;5.20;3.10;;;;;;;17.88;37.36;100003.39;130559;1258;107402;-75
2023/04/22 12:25:37;;;;;;;3.60;2.90;;;;;;;17.94;37.85;100005.19;130682;1256;106774;-75
2023/04/22 12:28:44;;;;;;;3.70;2.70;;;;;;;17.98;38.54;100000.81;130599;1258;107513;-76
2023/04/22 12:31:50;;;;;;;5.80;2.90;;;;;;;18.01;38.30;99998.25;130610;1256;107551;-76
2023/04/22 12:34:55;;;;;;;3.50;2.80;;;;;;;18.01;37.89;99998.79;130546;1254;107439;-75
2023/04/22 12:38:01;;;;;;;4.40;3.00;;;;;;;18.02;38.27;99991.31;130588;1258;107548;-75
2023/04/22 12:41:08;;;;;;;5.60;2.90;;;;;;;18.03;38.22;99994.75;130560;1258;107588;-74
2023/04/22 12:44:13;;;;;;;3.70;3.00;;;;;;;18.02;37.16;99991.14;130689;1255;107541;-75
2023/04/22 12:47:19;;;;;;;4.60;2.80;;;;;;;18.03;38.56;99987.48;130575;1257;107494;-75
2023/04/22 12:50:25;;;;;;;5.10;2.70;;;;;;;18.09;38.36;99983.04;130658;1258;107101;-75
2023/04/22 12:53:30;;;;;;;4.70;2.50;;;;;;;18.11;38.36;99979.88;130776;1258;107393;-75
2023/04/22 12:56:36;;;;;;;3.60;2.70;;;;;;;18.13;38.20;99975.88;130756;1258;107482;-75
2023/04/22 12:59:41;;;;;;;4.40;2.70;;;;;;;18.16;36.99;99969.19;130757;1259;106956;-75
2023/04/22 13:02:49;;;;;;;3.70;2.70;;;;;;;18.22;37.78;99966.18;130578;1256;107649;-75
2023/04/22 13:05:55;;;;;;;3.00;2.50;;;;;;;18.29;37.69;99962.32;130621;1258;107558;-75
2023/04/22 13:09:00;;;;;;;3.50;2.60;;;;;;;18.32;37.61;99965.60;130595;1258;107452;-75
2023/04/22 13:12:06;;;;;;;6.50;3.70;;;;;;;18.37;37.68;99960.71;130646;1258;107667;-75
2023/04/22 13:15:13;;;;;;;16.00;3.10;;;;;;;18.37;35.97;99960.52;130647;1258;107566;-75
2023/04/22 13:18:18;;;;;;;5.30;2.90;;;;;;;18.35;36.29;99962.89;130579;1256;108716;-74
2023/04/22 13:21:23;;;;;;;4.90;3.30;;;;;;;18.34;36.08;99959.31;130693;1258;107559;-74
2023/04/22 13:24:29;;;;;;;4.40;2.90;;;;;;;18.34;35.42;99957.20;130650;1258;107547;-75
2023/04/22 13:27:35;;;;;;;8.80;3.70;;;;;;;18.36;35.63;99949.80;130556;1258;107486;-75
2023/04/22 13:30:40;;;;;;;6.20;4.20;;;;;;;18.34;36.66;99949.39;130566;1258;107569;-75
2023/04/22 13:33:46;;;;;;;4.00;3.20;;;;;;;18.33;36.22;99941.91;130666;1268;107540;-75
2023/04/22 13:36:52;;;;;;;7.30;5.80;;;;;;;18.34;36.02;99944.31;130581;1256;107282;-75
2023/04/22 13:39:57;;;;;;;6.00;4.30;;;;;;;18.35;36.35;99940.58;130595;1261;107281;-75
2023/04/22 13:43:03;;;;;;;3.40;3.00;;;;;;;18.37;36.29;99941.60;130667;1260;107566;-75
2023/04/22 13:46:09;;;;;;;5.20;3.10;;;;;;;18.38;36.76;99938.11;130592;1258;107547;-75
2023/04/22 13:49:14;;;;;;;3.20;2.70;;;;;;;18.40;37.02;99935.11;130571;1258;107565;-74
2023/04/22 13:52:20;;;;;;;4.00;3.10;;;;;;;18.43;36.81;99938.46;130595;1259;107522;-75
2023/04/22 13:55:26;;;;;;;3.80;3.20;;;;;;;18.50;37.39;99934.00;130664;1258;107512;-75
2023/04/22 13:58:32;;;;;;;4.50;3.30;;;;;;;18.56;37.43;99934.44;130664;1257;107532;-75
2023/04/22 14:01:37;;;;;;;4.40;3.00;;;;;;;18.58;37.51;99932.89;130531;1258;107534;-75
2023/04/22 14:04:43;;;;;;;3.70;3.00;;;;;;;18.60;37.55;99932.67;130519;1259;107401;-76